Logo

Informe meteorológico de la semana en curso

  • Compartir en Google Plus
  • Compartir en Twitter
  • Compartir en Facebook
Nº de accesos al conjunto de datos: 216

Previsualización

API de datos Código HTML

_id codest paraje municipio periodo NDias tmin tmax tmed hrmin hrmax hrmed prec radmax radmed vvmed vvmax eto_pm_fao
1 AL31 Lebor Totana 26/10/2020 - 01/11/2020 4 7.0 24.2 15.3 23.1 84.9 52.9 0.0 846.0 153.8 1.6 9.0 10.6
2 AL41 La Calavera Alhama 26/10/2020 - 01/11/2020 4 5.8 24.8 14.8 19.1 77.8 51.2 0.0 833.0 170.0 1.8 8.2 11.5
3 AL52 Los Palomos Librilla 26/10/2020 - 01/11/2020 4 6.7 25.6 15.9 27.5 86.4 55.9 0.0 780.0 169.3 1.3 8.8 9.6
4 AL62 Cañada Gallego Mazarrón 26/10/2020 - 01/11/2020 3 8.5 22.4 15.5 19.3 77.3 52.0 0.0 772.0 174.3 1.3 8.6 7.0
5 AL91 Leiva Mazarrón 26/10/2020 - 01/11/2020 4 5.8 24.4 15.1 18.5 81.2 56.6 0.0 855.0 169.8 1.1 10.0 9.2
6 CA12 La Palma Cartagena 26/10/2020 - 01/11/2020 3 8.7 22.3 16.1 22.2 70.2 50.5 0.0 704.0 173.9 1.4 11.1 7.6
7 CA21 Corvera Murcia 26/10/2020 - 01/11/2020 4 11.9 24.5 16.9 27.9 77.4 48.4 0.2 675.3 174.9 2.1 9.8 11.9
8 CA42 Balsapintada Fuente Alamo 26/10/2020 - 01/11/2020 4 7.2 25.3 15.8 25.6 88.5 55.5 0.0 671.0 172.0 1.3 8.8 9.5
9 CA52 La Aljorra Cartagena 26/10/2020 - 01/11/2020 4 9.9 24.4 16.5 27.3 92.5 55.4 0.0 709.0 166.2 1.9 9.4 11.0
10 CA73 Los Belones Cartagena 26/10/2020 - 01/11/2020 4 13.6 21.9 17.3 26.9 95.6 55.7 0.0 742.9 166.7 1.4 8.1 9.7
11 CA91 Campillo Abajo Fuente Alamo 26/10/2020 - 01/11/2020 4 9.2 24.7 15.9 22.3 85.6 50.6 0.0 801.0 177.4 0.7 5.0 7.8
12 CI22 Estación de Blanca Blanca 26/10/2020 - 01/11/2020 4 10.6 25.0 16.5 22.7 83.5 46.4 0.4 927.0 171.6 1.3 8.6 9.8
13 CI32 Estación Ulea Ulea 26/10/2020 - 01/11/2020 4 9.3 25.0 16.0 24.9 92.5 53.6 0.0 840.0 170.7 2.6 11.1 13.0
14 CI42 La Carrichosa Cieza 26/10/2020 - 01/11/2020 4 3.6 24.9 14.3 25.8 94.7 62.0 0.0 773.7 175.0 0.7 6.9 7.3
15 CI52 Rotas Calasparra 26/10/2020 - 01/11/2020 4 3.2 25.3 14.0 21.4 85.7 53.4 0.3 804.0 176.4 1.0 10.5 8.1
16 CI71 Llano de las olivericas Calasparra 26/10/2020 - 01/11/2020 4 5.8 25.1 14.8 24.8 93.4 57.6 0.1 704.9 153.2 1.2 9.2 8.6
17 CR12 Barranda Caravaca 26/10/2020 - 01/11/2020 4 0.9 20.8 10.2 23.9 89.2 57.4 0.0 787.9 169.0 1.3 9.7 8.0
18 CR32 El Chaparral Cehegin 26/10/2020 - 01/11/2020 3 -1.5 23.2 11.1 22.0 89.6 55.1 0.6 777.0 175.8 0.8 9.1 5.4
19 CR42 Venta Ulea Moratalla 26/10/2020 - 01/11/2020 4 4.0 24.1 13.1 26.9 88.8 56.6 0.2 849.0 173.1 1.9 10.5 10.4
20 CR52 La Torrecica Cehegin 26/10/2020 - 01/11/2020 4 3.2 23.7 12.9 22.2 89.6 55.6 0.0 778.8 176.2 0.6 8.4 6.8
21 CR61 Casas del Rey Moratalla 26/10/2020 - 01/11/2020 3 3.3 20.8 10.5 29.9 94.3 56.3 0.3 None None 2.3 10.7 None
22 JU12 Cañada del Judio Jumilla 26/10/2020 - 01/11/2020 3 5.1 23.3 13.9 26.0 75.7 51.8 0.2 723.0 167.6 1.8 12.3 7.5
23 JU42 Las Moratillas Yecla 26/10/2020 - 01/11/2020 4 0.0 23.2 11.4 37.0 94.9 69.0 0.6 897.0 161.8 1.5 7.9 7.9
24 JU52 Pinillos Yecla 26/10/2020 - 01/11/2020 3 2.9 22.8 12.2 30.0 90.1 57.4 0.1 845.0 167.4 1.1 10.0 5.6
25 JU62 Miraflores Jumilla 26/10/2020 - 01/11/2020 4 4.1 22.7 13.0 32.6 92.9 62.8 0.5 861.0 172.8 1.1 8.2 7.6
26 JU71 Las Encebras Jumilla 26/10/2020 - 01/11/2020 4 4.4 23.8 14.3 28.4 87.2 54.8 0.0 906.0 173.6 2.4 14.4 11.3
27 JU81 Roman Jumilla 26/10/2020 - 01/11/2020 4 5.1 23.8 14.4 24.6 83.8 52.3 0.2 756.8 160.6 1.1 9.8 8.2
28 LO11 Purias Lorca 26/10/2020 - 01/11/2020 4 7.5 24.4 15.0 26.4 88.7 56.1 0.0 803.0 154.2 1.8 9.8 10.7
29 LO21 Pozohiguera Lorca 26/10/2020 - 01/11/2020 4 7.4 22.6 14.7 27.7 88.3 57.6 0.0 801.0 163.5 2.2 8.7 11.1
30 LO31 La Pilica Aguilas 26/10/2020 - 01/11/2020 4 11.7 22.9 17.0 21.1 82.7 55.7 0.2 739.0 157.3 1.3 11.0 9.6
31 LO41 La Paca Lorca 26/10/2020 - 01/11/2020 4 2.9 23.1 12.7 22.0 85.3 56.5 0.0 779.0 170.2 1.5 7.7 9.4
32 LO51 Tebar Aguilas 26/10/2020 - 01/11/2020 4 10.3 21.4 16.3 21.2 81.9 49.3 0.0 866.0 177.5 2.4 16.8 12.3
33 LO61 El Esparragal Puerto Lumbreras 26/10/2020 - 01/11/2020 4 5.0 24.5 14.3 17.8 76.9 49.5 0.0 951.0 175.1 1.4 9.3 10.2
34 ML12 Yechar Mula 26/10/2020 - 01/11/2020 3 8.5 26.6 15.8 20.7 81.1 46.5 0.0 None None 1.7 6.9 8.4
35 ML21 Mula Mula 26/10/2020 - 01/11/2020 4 7.2 25.0 15.7 19.7 80.3 47.6 0.0 837.0 184.6 1.5 8.9 10.6
36 MO12 Pilica Torres de Cotillas 26/10/2020 - 01/11/2020 4 11.1 24.8 16.8 25.8 87.1 50.3 0.0 845.0 174.3 1.6 9.0 10.7
37 MO22 Campotejar Molina Segura 26/10/2020 - 01/11/2020 4 10.0 25.0 16.6 19.5 86.6 46.9 0.0 855.0 172.4 2.1 10.5 12.5
38 MO31 El Llano Molina Segura 26/10/2020 - 01/11/2020 3 5.2 26.3 16.0 22.2 87.6 49.9 0.0 775.0 171.3 0.9 8.5 6.2
39 MO41 La Jaira Abanilla 26/10/2020 - 01/11/2020 3 9.2 25.4 15.6 22.1 65.7 45.2 0.0 732.0 167.3 1.4 10.9 7.6
40 MO51 Charco Taray Fortuna 26/10/2020 - 01/11/2020 4 9.8 25.8 16.6 24.5 93.8 52.8 0.0 803.0 159.9 1.5 7.3 10.5
41 MO62 Loma del Aire Ojós 26/10/2020 - 01/11/2020 4 11.3 25.0 17.9 24.8 88.3 48.8 0.0 859.0 93.6 0.7 5.5 7.0
42 MU21 Los Alamos Beniel 26/10/2020 - 01/11/2020 4 9.4 25.2 16.1 25.5 90.3 57.9 0.0 838.0 180.1 1.0 7.2 8.8
43 MU31 La Vereda Murcia 26/10/2020 - 01/11/2020 4 10.1 25.3 16.7 27.3 83.7 52.2 0.0 704.4 157.1 1.2 8.4 9.2
44 MU52 Cabezo Plata Murcia 26/10/2020 - 01/11/2020 4 10.7 25.7 17.2 22.7 77.2 48.7 0.4 817.0 174.9 1.7 10.1 11.5
45 MU62 La Alberca Murcia 26/10/2020 - 01/11/2020 4 9.8 26.6 17.2 19.6 74.8 44.9 0.0 778.4 175.2 0.7 6.4 8.1
46 TP22 Santiago de la Ribera San Javier 26/10/2020 - 01/11/2020 4 7.2 23.7 16.1 23.2 87.2 55.1 0.0 755.2 168.4 1.2 8.9 9.4
47 TP42 Torre Blanca Torre Pacheco 26/10/2020 - 01/11/2020 3 8.1 24.7 16.6 27.8 77.7 52.8 0.0 703.0 170.2 2.3 12.6 9.6
48 TP52 El Mirador San Javier 26/10/2020 - 01/11/2020 4 11.3 24.1 16.5 24.7 93.3 49.5 0.0 766.7 180.7 1.8 9.4 11.5
49 TP73 Los Infiernos Torre Pacheco 26/10/2020 - 01/11/2020 3 10.8 24.0 16.3 24.2 67.8 45.3 0.0 748.0 179.6 3.1 14.4 11.4
50 TP91 Torre Pacheco Torre Pacheco 26/10/2020 - 01/11/2020 3 7.7 23.4 15.9 26.7 99.9 58.4 0.0 725.0 174.1 1.4 10.0 7.0

Propiedades del conjunto de datos

Título
Informe meteorológico de la semana en curso
Descripción

Información sobre los datos meteorológicos medios de la semana en curso. Se incluye la información por cada una de las estaciones meteorológicas de la red SIAM gestionada por el Instituto Murciano de Investigación y Desarrollo Agrario y Alimentario (IMIDA). Los datos recogidos por las estaciones son validados al día siguiente de la toma de datos.

Categoría
Palabra clave / etiqueta
Publicador
Cobertura geográfica
Región de Murcia
Idioma
Español
Fecha de primera publicación
15/05/2018
Fecha de última modificación
30/10/2020
Licencia
Frecuencia de actualización
Diaria (cada día)
Diccionario de datos
La información se estructura en las siguientes columnas: Código de estación meteorológica, Nombre del paraje donde está ubicada la estación, Municipio donde está ubicada la estación, Fechas de toma de datos, número de días del ejercicio, Temperatura mínima (ºC), Temperatura máxima (ºC), Temperatura media (ºC), Humedad Relativa mínima (%), Humedad Relativa máxima (%),Humedad Relativa media (%),Precipitación (mm), radiación máxima (w/m2), radiación media (w/m2), Velocidad del Viento media (m/seg), Velocidad del Viento máxima (m/seg), Evapotranspiración máxima de un día (mm).
comments powered by Disqus